Pagrindinis puslapis
METAR-TAF:

METAR-TAF

Oro uostai :

Estešundas-Frösön, Švedija

platuma: 63-11N, ilguma: 014-30E, Aukštis: 376 m

Dabartinis oras

Ataskaita buvo paskelbta 11 minutes, ne 12:50 UTC
Vėjas 10 kt iš Pietų
Temperatūra -1°C
Drėgmė 86%
Slėgis 991 hPa
Matomumas 10 km arba daugiau
Išsisklaidę debesys ne aukštis 4400 ft

METAR: ESNZ 161250Z 19010KT 9999 SCT044 M01/M03 Q0991

Laikas: 14:01 (13:01 UTC)

Prognozė

Ataskaita buvo paskelbta 1 valandą ir 31 minutes, ne 11:30 UTC
Prognozė galioja nuo 16 metu 12 UTC su 16 metu 21 UTC
Vėjas 8 kt iš Pietų/Pietryčių
Matomumas 10 km arba daugiau
Su prošvaistėmis ne aukštis 4500 ft

TAF: ESNZ 161130Z 1612/1621 15008KT 9999 BKN045

Orai ataskaitas ir orų prognozės (METAR, TAF).

turimą stotys yra geltonos ir raudonos taškus žemėlapyje.

Perkelti pele per norėdami pamatyti stoties vardą.

Tada spustelėkite, norėdami matyti oro stebėjimo ir prognozės.

Norėdami pakeisti žemėlapį: spustelėkite ant žalios mygtukų su juodo kryžiaus žemyn,; žalią mygtuką su brūkšneliu, jei norite nutolinti; arba žalių rodyklių gretimoms žemėlapius.


METAR-TAF: